Aérodrome :
LOGIN :

S'inscrire | Disclaimer

   EN    FR    IT 

 










Légende :    VFR   VFR Marginal   IFR   IFR Intensif   IFR Très Intensif
Visi : 
Plafond : 
>= 8 km
>= 3000ft
5 à 8 km
1000 à 3000 ft
1500m à 5 km
500 à 1000 ft
800 à 1500m
200 à 500 ft
< 800m
< 200 ft
Symboles :   Orages  Brouillard  Fortes neiges  Fortes précipitations  Vent > 20 kt
SIGMETs :   Divers  Orages  Givrage  Turbulence  Onde Orograph.  Cendres Volcan.






- Altitude de l'aérodrome : 896 ft
- Code IATA : INZ


DAUI - in Salah

DERNIER METAR :
  • 271100Z 23008KT 7000 NSC 39/07 Q1015

METARs EXPIRÉS :
  • 271000Z 20008KT 7000 NSC 37/08 Q1015
  • 270900Z 18012KT 7000 NSC 36/08 Q1015

TAF TAF DAUI
Valide du 27 à 12h jusqu'au 28 à 12h UTC


271100Z 2712/2812 22008KT 8000 NSC
PROB30 2714/2718 22020G30KT 2000 DRSA FEW040CB
BECMG 2718/2721 02010KT



MET'MAP, la Météo Aéronautique d'un coup d'oeil ! - Copyright ORBIFLY Décembre 2007 - Disclaimer

ORBIFLY MET'MAP TEAM :

Programmation & Développement : Alexandra Zaïnal
Sur une idée originale de : Baudouin d'Aumeries
Assistance à la programmation : Marc-Olivier Méhu
Soutien technique & logistique : Manuel Goepfert

Contact : metmap@orbifly.com




SOURCES & CREDITS :

   NOAA